sensor_id;sensor_type;location;lat;lon;timestamp;P1;durP1;ratioP1;P2;durP2;ratioP2
11123;SDS011;5616;42.692;23.312;2023-03-26T00:01:14;0.83;;;0.63;;
11123;SDS011;5616;42.692;23.312;2023-03-26T00:03:42;0.40;;;0.40;;
11123;SDS011;5616;42.692;23.312;2023-03-26T00:06:11;0.67;;;0.60;;
11123;SDS011;5616;42.692;23.312;2023-03-26T00:08:40;0.60;;;0.60;;
11123;SDS011;5616;42.692;23.312;2023-03-26T00:11:10;0.50;;;0.50;;
11123;SDS011;5616;42.692;23.312;2023-03-26T00:13:38;0.83;;;0.60;;
11123;SDS011;5616;42.692;23.312;2023-03-26T00:16:09;0.83;;;0.80;;
11123;SDS011;5616;42.692;23.312;2023-03-26T00:18:37;1.00;;;0.60;;
11123;SDS011;5616;42.692;23.312;2023-03-26T00:21:09;0.70;;;0.70;;
11123;SDS011;5616;42.692;23.312;2023-03-26T00:23:37;1.17;;;0.60;;
11123;SDS011;5616;42.692;23.312;2023-03-26T00:26:05;0.70;;;0.67;;
11123;SDS011;5616;42.692;23.312;2023-03-26T00:28:35;0.47;;;0.47;;
11123;SDS011;5616;42.692;23.312;2023-03-26T00:31:05;0.53;;;0.53;;
11123;SDS011;5616;42.692;23.312;2023-03-26T00:33:35;0.90;;;0.47;;
11123;SDS011;5616;42.692;23.312;2023-03-26T00:36:04;0.40;;;0.40;;
11123;SDS011;5616;42.692;23.312;2023-03-26T00:38:34;0.50;;;0.50;;
11123;SDS011;5616;42.692;23.312;2023-03-26T00:41:03;0.70;;;0.57;;
11123;SDS011;5616;42.692;23.312;2023-03-26T00:43:31;0.77;;;0.60;;
11123;SDS011;5616;42.692;23.312;2023-03-26T00:45:59;0.73;;;0.40;;
11123;SDS011;5616;42.692;23.312;2023-03-26T00:48:27;2.33;;;0.50;;
11123;SDS011;5616;42.692;23.312;2023-03-26T00:50:56;0.50;;;0.50;;
11123;SDS011;5616;42.692;23.312;2023-03-26T00:53:23;0.80;;;0.70;;
11123;SDS011;5616;42.692;23.312;2023-03-26T00:55:50;2.13;;;0.90;;
11123;SDS011;5616;42.692;23.312;2023-03-26T00:58:17;1.03;;;0.67;;
11123;SDS011;5616;42.692;23.312;2023-03-26T01:00:48;2.30;;;0.60;;
11123;SDS011;5616;42.692;23.312;2023-03-26T01:03:17;0.70;;;0.70;;
11123;SDS011;5616;42.692;23.312;2023-03-26T01:05:46;0.67;;;0.67;;
11123;SDS011;5616;42.692;23.312;2023-03-26T01:08:25;0.73;;;0.73;;
11123;SDS011;5616;42.692;23.312;2023-03-26T01:10:55;0.50;;;0.50;;
11123;SDS011;5616;42.692;23.312;2023-03-26T01:13:30;0.50;;;0.47;;
11123;SDS011;5616;42.692;23.312;2023-03-26T01:15:59;0.50;;;0.50;;
11123;SDS011;5616;42.692;23.312;2023-03-26T01:18:27;1.73;;;0.57;;
11123;SDS011;5616;42.692;23.312;2023-03-26T01:20:59;0.80;;;0.60;;
11123;SDS011;5616;42.692;23.312;2023-03-26T01:23:36;0.50;;;0.40;;
11123;SDS011;5616;42.692;23.312;2023-03-26T01:26:12;0.57;;;0.53;;
11123;SDS011;5616;42.692;23.312;2023-03-26T01:28:57;0.80;;;0.80;;
11123;SDS011;5616;42.692;23.312;2023-03-26T01:31:29;0.87;;;0.77;;
11123;SDS011;5616;42.692;23.312;2023-03-26T01:34:02;0.80;;;0.80;;
11123;SDS011;5616;42.692;23.312;2023-03-26T01:36:38;1.13;;;0.77;;
11123;SDS011;5616;42.692;23.312;2023-03-26T01:39:10;0.70;;;0.70;;
11123;SDS011;5616;42.692;23.312;2023-03-26T01:41:47;0.80;;;0.70;;
11123;SDS011;5616;42.692;23.312;2023-03-26T01:44:19;0.70;;;0.70;;
11123;SDS011;5616;42.692;23.312;2023-03-26T01:46:52;0.70;;;0.70;;
11123;SDS011;5616;42.692;23.312;2023-03-26T01:49:20;0.80;;;0.80;;
11123;SDS011;5616;42.692;23.312;2023-03-26T01:51:49;1.03;;;0.60;;
11123;SDS011;5616;42.692;23.312;2023-03-26T01:54:17;0.83;;;0.60;;
11123;SDS011;5616;42.692;23.312;2023-03-26T01:56:51;0.70;;;0.70;;
11123;SDS011;5616;42.692;23.312;2023-03-26T02:02:20;0.63;;;0.57;;
11123;SDS011;5616;42.692;23.312;2023-03-26T02:04:51;0.50;;;0.50;;
11123;SDS011;5616;42.692;23.312;2023-03-26T02:07:22;0.60;;;0.60;;
11123;SDS011;5616;42.692;23.312;2023-03-26T02:09:54;0.80;;;0.80;;
11123;SDS011;5616;42.692;23.312;2023-03-26T02:12:25;0.80;;;0.80;;
11123;SDS011;5616;42.692;23.312;2023-03-26T02:14:54;0.80;;;0.80;;
11123;SDS011;5616;42.692;23.312;2023-03-26T02:17:24;1.00;;;0.97;;
11123;SDS011;5616;42.692;23.312;2023-03-26T02:19:54;1.20;;;1.10;;
11123;SDS011;5616;42.692;23.312;2023-03-26T02:22:21;0.80;;;0.80;;
11123;SDS011;5616;42.692;23.312;2023-03-26T02:24:55;0.87;;;0.80;;
11123;SDS011;5616;42.692;23.312;2023-03-26T02:27:22;1.50;;;1.30;;
11123;SDS011;5616;42.692;23.312;2023-03-26T02:29:50;2.20;;;0.93;;
11123;SDS011;5616;42.692;23.312;2023-03-26T02:32:19;0.90;;;0.90;;
11123;SDS011;5616;42.692;23.312;2023-03-26T02:34:46;0.80;;;0.80;;
11123;SDS011;5616;42.692;23.312;2023-03-26T02:37:15;0.80;;;0.80;;
11123;SDS011;5616;42.692;23.312;2023-03-26T02:39:43;0.90;;;0.90;;
11123;SDS011;5616;42.692;23.312;2023-03-26T02:42:20;1.10;;;1.00;;
11123;SDS011;5616;42.692;23.312;2023-03-26T02:44:49;2.03;;;1.13;;
11123;SDS011;5616;42.692;23.312;2023-03-26T02:47:16;1.20;;;1.10;;
11123;SDS011;5616;42.692;23.312;2023-03-26T02:49:52;1.60;;;1.30;;
11123;SDS011;5616;42.692;23.312;2023-03-26T02:52:30;1.87;;;1.30;;
11123;SDS011;5616;42.692;23.312;2023-03-26T02:54:58;1.07;;;1.03;;
11123;SDS011;5616;42.692;23.312;2023-03-26T02:57:25;1.30;;;1.00;;
11123;SDS011;5616;42.692;23.312;2023-03-26T03:00:13;1.03;;;1.00;;
11123;SDS011;5616;42.692;23.312;2023-03-26T03:02:44;1.10;;;1.00;;
11123;SDS011;5616;42.692;23.312;2023-03-26T03:05:34;1.07;;;0.97;;
11123;SDS011;5616;42.692;23.312;2023-03-26T03:08:23;1.47;;;1.20;;
11123;SDS011;5616;42.692;23.312;2023-03-26T03:11:02;1.30;;;1.20;;
11123;SDS011;5616;42.692;23.312;2023-03-26T03:13:44;1.10;;;1.00;;
11123;SDS011;5616;42.692;23.312;2023-03-26T03:16:16;1.37;;;1.00;;
11123;SDS011;5616;42.692;23.312;2023-03-26T03:18:44;2.03;;;1.57;;
11123;SDS011;5616;42.692;23.312;2023-03-26T03:21:11;1.53;;;1.43;;
11123;SDS011;5616;42.692;23.312;2023-03-26T03:23:38;1.43;;;1.33;;
11123;SDS011;5616;42.692;23.312;2023-03-26T03:26:11;1.77;;;1.50;;
11123;SDS011;5616;42.692;23.312;2023-03-26T03:28:43;2.00;;;1.80;;
11123;SDS011;5616;42.692;23.312;2023-03-26T03:31:13;1.83;;;1.70;;
11123;SDS011;5616;42.692;23.312;2023-03-26T03:33:41;1.90;;;1.70;;
11123;SDS011;5616;42.692;23.312;2023-03-26T03:36:11;2.07;;;1.80;;
11123;SDS011;5616;42.692;23.312;2023-03-26T03:38:40;3.67;;;2.07;;
11123;SDS011;5616;42.692;23.312;2023-03-26T03:41:08;2.30;;;2.10;;
11123;SDS011;5616;42.692;23.312;2023-03-26T03:43:39;1.90;;;1.80;;
11123;SDS011;5616;42.692;23.312;2023-03-26T03:46:11;2.60;;;2.40;;
11123;SDS011;5616;42.692;23.312;2023-03-26T03:48:44;2.10;;;1.90;;
11123;SDS011;5616;42.692;23.312;2023-03-26T03:51:16;2.00;;;1.70;;
11123;SDS011;5616;42.692;23.312;2023-03-26T03:53:48;1.83;;;1.73;;
11123;SDS011;5616;42.692;23.312;2023-03-26T03:56:29;1.83;;;1.73;;
11123;SDS011;5616;42.692;23.312;2023-03-26T03:59:15;2.33;;;1.80;;
11123;SDS011;5616;42.692;23.312;2023-03-26T04:01:42;2.07;;;1.97;;
11123;SDS011;5616;42.692;23.312;2023-03-26T04:04:24;2.00;;;1.70;;
11123;SDS011;5616;42.692;23.312;2023-03-26T04:06:59;2.53;;;2.07;;
11123;SDS011;5616;42.692;23.312;2023-03-26T04:09:33;2.37;;;2.17;;
11123;SDS011;5616;42.692;23.312;2023-03-26T04:12:08;2.60;;;2.10;;
11123;SDS011;5616;42.692;23.312;2023-03-26T04:14:40;2.43;;;1.90;;
11123;SDS011;5616;42.692;23.312;2023-03-26T04:17:13;2.90;;;2.10;;
11123;SDS011;5616;42.692;23.312;2023-03-26T04:19:42;2.53;;;2.33;;
11123;SDS011;5616;42.692;23.312;2023-03-26T04:22:11;2.27;;;2.07;;
11123;SDS011;5616;42.692;23.312;2023-03-26T04:24:49;3.43;;;2.30;;
11123;SDS011;5616;42.692;23.312;2023-03-26T04:27:36;3.15;;;2.80;;
11123;SDS011;5616;42.692;23.312;2023-03-26T04:30:19;2.50;;;2.30;;
11123;SDS011;5616;42.692;23.312;2023-03-26T04:32:57;3.17;;;2.70;;
11123;SDS011;5616;42.692;23.312;2023-03-26T04:35:32;2.67;;;2.47;;
11123;SDS011;5616;42.692;23.312;2023-03-26T04:38:00;3.00;;;2.70;;
11123;SDS011;5616;42.692;23.312;2023-03-26T04:40:36;2.80;;;2.50;;
11123;SDS011;5616;42.692;23.312;2023-03-26T04:43:28;2.57;;;2.37;;
11123;SDS011;5616;42.692;23.312;2023-03-26T04:46:02;2.93;;;2.60;;
11123;SDS011;5616;42.692;23.312;2023-03-26T04:48:34;3.40;;;2.90;;
11123;SDS011;5616;42.692;23.312;2023-03-26T04:51:02;4.83;;;2.70;;
11123;SDS011;5616;42.692;23.312;2023-03-26T04:53:31;4.10;;;2.60;;
11123;SDS011;5616;42.692;23.312;2023-03-26T04:56:02;3.73;;;3.17;;
11123;SDS011;5616;42.692;23.312;2023-03-26T04:59:00;4.10;;;3.17;;
11123;SDS011;5616;42.692;23.312;2023-03-26T05:01:31;4.47;;;3.27;;
11123;SDS011;5616;42.692;23.312;2023-03-26T05:04:02;3.73;;;3.23;;
11123;SDS011;5616;42.692;23.312;2023-03-26T05:06:30;3.00;;;2.80;;
11123;SDS011;5616;42.692;23.312;2023-03-26T05:09:01;3.53;;;3.10;;
11123;SDS011;5616;42.692;23.312;2023-03-26T05:11:51;4.30;;;3.87;;
11123;SDS011;5616;42.692;23.312;2023-03-26T05:14:18;4.37;;;3.47;;
11123;SDS011;5616;42.692;23.312;2023-03-26T05:16:47;4.30;;;3.90;;
11123;SDS011;5616;42.692;23.312;2023-03-26T05:19:17;4.07;;;3.67;;
11123;SDS011;5616;42.692;23.312;2023-03-26T05:21:45;4.10;;;3.70;;
11123;SDS011;5616;42.692;23.312;2023-03-26T05:24:12;4.63;;;4.23;;
11123;SDS011;5616;42.692;23.312;2023-03-26T05:26:39;4.47;;;4.07;;
11123;SDS011;5616;42.692;23.312;2023-03-26T05:29:06;5.50;;;4.00;;
11123;SDS011;5616;42.692;23.312;2023-03-26T05:31:42;4.80;;;4.40;;
11123;SDS011;5616;42.692;23.312;2023-03-26T05:34:09;5.17;;;4.43;;
11123;SDS011;5616;42.692;23.312;2023-03-26T05:36:36;5.03;;;4.57;;
11123;SDS011;5616;42.692;23.312;2023-03-26T05:39:16;6.63;;;4.70;;
11123;SDS011;5616;42.692;23.312;2023-03-26T05:42:03;6.40;;;4.80;;
11123;SDS011;5616;42.692;23.312;2023-03-26T05:44:46;5.20;;;4.70;;
11123;SDS011;5616;42.692;23.312;2023-03-26T05:47:20;7.13;;;5.33;;
11123;SDS011;5616;42.692;23.312;2023-03-26T05:49:47;5.30;;;4.80;;
11123;SDS011;5616;42.692;23.312;2023-03-26T05:52:14;6.37;;;5.03;;
11123;SDS011;5616;42.692;23.312;2023-03-26T05:55:05;6.33;;;4.90;;
11123;SDS011;5616;42.692;23.312;2023-03-26T05:58:05;5.20;;;4.77;;
11123;SDS011;5616;42.692;23.312;2023-03-26T06:00:55;6.97;;;4.97;;
11123;SDS011;5616;42.692;23.312;2023-03-26T06:03:28;5.40;;;4.90;;
11123;SDS011;5616;42.692;23.312;2023-03-26T06:06:07;5.70;;;5.00;;
11123;SDS011;5616;42.692;23.312;2023-03-26T06:08:44;5.13;;;4.63;;
11123;SDS011;5616;42.692;23.312;2023-03-26T06:11:16;5.07;;;4.67;;
11123;SDS011;5616;42.692;23.312;2023-03-26T06:13:45;4.30;;;4.00;;
11123;SDS011;5616;42.692;23.312;2023-03-26T06:16:13;5.10;;;4.60;;
11123;SDS011;5616;42.692;23.312;2023-03-26T06:18:54;5.20;;;4.70;;
11123;SDS011;5616;42.692;23.312;2023-03-26T06:21:41;5.40;;;4.90;;
11123;SDS011;5616;42.692;23.312;2023-03-26T06:24:15;5.90;;;5.30;;
11123;SDS011;5616;42.692;23.312;2023-03-26T06:27:05;5.60;;;5.00;;
11123;SDS011;5616;42.692;23.312;2023-03-26T06:29:50;6.00;;;5.03;;
11123;SDS011;5616;42.692;23.312;2023-03-26T06:32:40;5.57;;;4.87;;
11123;SDS011;5616;42.692;23.312;2023-03-26T06:35:11;7.20;;;4.70;;
11123;SDS011;5616;42.692;23.312;2023-03-26T06:37:39;6.67;;;5.40;;
11123;SDS011;5616;42.692;23.312;2023-03-26T06:40:06;4.93;;;4.53;;
11123;SDS011;5616;42.692;23.312;2023-03-26T06:42:53;4.90;;;4.40;;
11123;SDS011;5616;42.692;23.312;2023-03-26T06:45:34;5.93;;;5.43;;
11123;SDS011;5616;42.692;23.312;2023-03-26T06:48:19;6.67;;;5.67;;
11123;SDS011;5616;42.692;23.312;2023-03-26T06:50:59;6.17;;;5.57;;
11123;SDS011;5616;42.692;23.312;2023-03-26T06:53:46;5.40;;;4.90;;
11123;SDS011;5616;42.692;23.312;2023-03-26T06:56:27;4.67;;;4.27;;
11123;SDS011;5616;42.692;23.312;2023-03-26T06:59:12;5.60;;;5.10;;
11123;SDS011;5616;42.692;23.312;2023-03-26T07:01:57;4.93;;;4.53;;
11123;SDS011;5616;42.692;23.312;2023-03-26T07:04:43;5.53;;;5.03;;
11123;SDS011;5616;42.692;23.312;2023-03-26T07:07:48;4.60;;;4.10;;
11123;SDS011;5616;42.692;23.312;2023-03-26T07:10:15;4.67;;;4.27;;
11123;SDS011;5616;42.692;23.312;2023-03-26T07:12:55;5.50;;;4.93;;
11123;SDS011;5616;42.692;23.312;2023-03-26T07:15:35;7.67;;;4.60;;
11123;SDS011;5616;42.692;23.312;2023-03-26T07:18:19;5.13;;;4.70;;
11123;SDS011;5616;42.692;23.312;2023-03-26T07:20:47;5.23;;;4.73;;
11123;SDS011;5616;42.692;23.312;2023-03-26T07:23:17;4.90;;;4.27;;
11123;SDS011;5616;42.692;23.312;2023-03-26T07:25:56;4.57;;;4.17;;
11123;SDS011;5616;42.692;23.312;2023-03-26T07:28:24;4.77;;;4.30;;
11123;SDS011;5616;42.692;23.312;2023-03-26T07:31:22;4.93;;;4.33;;
11123;SDS011;5616;42.692;23.312;2023-03-26T07:34:11;4.90;;;4.07;;
11123;SDS011;5616;42.692;23.312;2023-03-26T07:37:14;5.13;;;4.63;;
11123;SDS011;5616;42.692;23.312;2023-03-26T07:40:11;7.47;;;4.40;;
11123;SDS011;5616;42.692;23.312;2023-03-26T07:43:20;3.10;;;2.80;;
11123;SDS011;5616;42.692;23.312;2023-03-26T07:46:23;4.30;;;3.90;;
11123;SDS011;5616;42.692;23.312;2023-03-26T07:49:13;4.60;;;4.20;;
11123;SDS011;5616;42.692;23.312;2023-03-26T07:52:17;4.47;;;4.03;;
11123;SDS011;5616;42.692;23.312;2023-03-26T07:54:53;4.37;;;3.80;;
11123;SDS011;5616;42.692;23.312;2023-03-26T07:57:30;3.80;;;3.50;;
11123;SDS011;5616;42.692;23.312;2023-03-26T08:00:28;5.60;;;4.00;;
11123;SDS011;5616;42.692;23.312;2023-03-26T08:03:14;3.73;;;3.43;;
11123;SDS011;5616;42.692;23.312;2023-03-26T08:05:51;4.27;;;3.40;;
11123;SDS011;5616;42.692;23.312;2023-03-26T08:08:37;3.50;;;3.20;;
11123;SDS011;5616;42.692;23.312;2023-03-26T08:11:33;3.57;;;3.27;;
11123;SDS011;5616;42.692;23.312;2023-03-26T08:14:12;3.40;;;3.10;;
11123;SDS011;5616;42.692;23.312;2023-03-26T08:16:48;3.20;;;2.90;;
11123;SDS011;5616;42.692;23.312;2023-03-26T08:19:31;3.10;;;2.80;;
11123;SDS011;5616;42.692;23.312;2023-03-26T08:22:10;3.07;;;2.77;;
11123;SDS011;5616;42.692;23.312;2023-03-26T08:24:42;3.60;;;3.30;;
11123;SDS011;5616;42.692;23.312;2023-03-26T08:27:19;4.47;;;3.10;;
11123;SDS011;5616;42.692;23.312;2023-03-26T08:29:54;5.70;;;3.30;;
11123;SDS011;5616;42.692;23.312;2023-03-26T08:32:28;3.90;;;3.00;;
11123;SDS011;5616;42.692;23.312;2023-03-26T08:34:56;3.27;;;2.97;;
11123;SDS011;5616;42.692;23.312;2023-03-26T08:37:24;2.70;;;2.50;;
11123;SDS011;5616;42.692;23.312;2023-03-26T08:39:53;7.93;;;3.13;;
11123;SDS011;5616;42.692;23.312;2023-03-26T08:45:51;3.23;;;2.90;;
11123;SDS011;5616;42.692;23.312;2023-03-26T08:48:40;3.20;;;2.67;;
11123;SDS011;5616;42.692;23.312;2023-03-26T09:00:54;2.50;;;2.30;;
11123;SDS011;5616;42.692;23.312;2023-03-26T09:06:37;3.10;;;2.20;;
11123;SDS011;5616;42.692;23.312;2023-03-26T09:15:50;4.13;;;2.27;;
11123;SDS011;5616;42.692;23.312;2023-03-26T09:21:54;2.27;;;2.07;;
11123;SDS011;5616;42.692;23.312;2023-03-26T09:27:47;2.77;;;2.37;;
11123;SDS011;5616;42.692;23.312;2023-03-26T09:30:47;2.40;;;2.03;;
11123;SDS011;5616;42.692;23.312;2023-03-26T09:36:26;3.13;;;2.03;;
11123;SDS011;5616;42.692;23.312;2023-03-26T09:39:08;2.03;;;1.90;;
11123;SDS011;5616;42.692;23.312;2023-03-26T09:41:42;3.87;;;2.17;;
11123;SDS011;5616;42.692;23.312;2023-03-26T09:50:48;2.00;;;1.80;;
11123;SDS011;5616;42.692;23.312;2023-03-26T09:53:39;1.93;;;1.60;;
11123;SDS011;5616;42.692;23.312;2023-03-26T09:56:24;2.20;;;1.87;;
11123;SDS011;5616;42.692;23.312;2023-03-26T10:02:11;1.83;;;1.70;;
11123;SDS011;5616;42.692;23.312;2023-03-26T10:08:01;1.80;;;1.50;;
11123;SDS011;5616;42.692;23.312;2023-03-26T10:10:53;3.67;;;1.67;;
11123;SDS011;5616;42.692;23.312;2023-03-26T10:13:26;1.90;;;1.60;;
11123;SDS011;5616;42.692;23.312;2023-03-26T10:16:04;1.70;;;1.30;;
11123;SDS011;5616;42.692;23.312;2023-03-26T10:18:41;1.60;;;1.33;;
11123;SDS011;5616;42.692;23.312;2023-03-26T10:21:19;1.30;;;1.20;;
11123;SDS011;5616;42.692;23.312;2023-03-26T10:23:56;1.33;;;1.23;;
11123;SDS011;5616;42.692;23.312;2023-03-26T10:26:45;1.20;;;1.10;;
11123;SDS011;5616;42.692;23.312;2023-03-26T10:29:23;1.93;;;1.10;;
11123;SDS011;5616;42.692;23.312;2023-03-26T10:32:08;1.50;;;1.10;;
11123;SDS011;5616;42.692;23.312;2023-03-26T10:37:29;3.97;;;1.30;;
11123;SDS011;5616;42.692;23.312;2023-03-26T10:40:17;2.80;;;1.40;;
11123;SDS011;5616;42.692;23.312;2023-03-26T10:42:54;1.30;;;1.13;;
11123;SDS011;5616;42.692;23.312;2023-03-26T10:45:50;1.40;;;1.10;;
11123;SDS011;5616;42.692;23.312;2023-03-26T10:48:34;1.00;;;1.00;;
11123;SDS011;5616;42.692;23.312;2023-03-26T10:51:15;4.43;;;1.00;;
11123;SDS011;5616;42.692;23.312;2023-03-26T10:53:52;1.73;;;1.10;;
11123;SDS011;5616;42.692;23.312;2023-03-26T10:56:26;1.10;;;1.00;;
11123;SDS011;5616;42.692;23.312;2023-03-26T10:58:57;1.87;;;1.20;;
11123;SDS011;5616;42.692;23.312;2023-03-26T11:01:34;1.20;;;1.10;;
11123;SDS011;5616;42.692;23.312;2023-03-26T11:04:20;0.80;;;0.80;;
11123;SDS011;5616;42.692;23.312;2023-03-26T11:06:58;0.83;;;0.80;;
11123;SDS011;5616;42.692;23.312;2023-03-26T11:09:39;1.30;;;0.90;;
11123;SDS011;5616;42.692;23.312;2023-03-26T11:12:13;1.03;;;0.93;;
11123;SDS011;5616;42.692;23.312;2023-03-26T11:14:50;1.10;;;1.00;;
11123;SDS011;5616;42.692;23.312;2023-03-26T11:17:29;1.67;;;1.27;;
11123;SDS011;5616;42.692;23.312;2023-03-26T11:20:06;1.00;;;1.00;;
11123;SDS011;5616;42.692;23.312;2023-03-26T11:22:40;2.33;;;0.90;;
11123;SDS011;5616;42.692;23.312;2023-03-26T11:28:09;1.73;;;1.10;;
11123;SDS011;5616;42.692;23.312;2023-03-26T11:30:47;1.23;;;1.00;;
11123;SDS011;5616;42.692;23.312;2023-03-26T11:33:21;0.80;;;0.80;;
11123;SDS011;5616;42.692;23.312;2023-03-26T11:35:51;1.67;;;0.80;;
11123;SDS011;5616;42.692;23.312;2023-03-26T11:38:25;1.43;;;1.03;;
11123;SDS011;5616;42.692;23.312;2023-03-26T11:40:57;1.07;;;0.80;;
11123;SDS011;5616;42.692;23.312;2023-03-26T11:43:43;1.97;;;1.03;;
11123;SDS011;5616;42.692;23.312;2023-03-26T11:46:13;1.57;;;1.00;;
11123;SDS011;5616;42.692;23.312;2023-03-26T11:48:46;2.33;;;1.10;;
11123;SDS011;5616;42.692;23.312;2023-03-26T11:51:17;2.13;;;1.10;;
11123;SDS011;5616;42.692;23.312;2023-03-26T11:53:48;0.80;;;0.80;;
11123;SDS011;5616;42.692;23.312;2023-03-26T11:56:24;1.10;;;1.00;;
11123;SDS011;5616;42.692;23.312;2023-03-26T11:58:54;1.07;;;0.97;;
11123;SDS011;5616;42.692;23.312;2023-03-26T12:01:26;1.33;;;0.90;;
11123;SDS011;5616;42.692;23.312;2023-03-26T12:03:57;1.00;;;1.00;;
11123;SDS011;5616;42.692;23.312;2023-03-26T12:06:29;0.80;;;0.80;;
11123;SDS011;5616;42.692;23.312;2023-03-26T12:08:57;1.87;;;1.20;;
11123;SDS011;5616;42.692;23.312;2023-03-26T12:11:24;2.10;;;1.00;;
11123;SDS011;5616;42.692;23.312;2023-03-26T12:13:55;1.40;;;1.03;;
11123;SDS011;5616;42.692;23.312;2023-03-26T12:16:24;1.40;;;1.00;;
11123;SDS011;5616;42.692;23.312;2023-03-26T12:19:00;0.97;;;0.90;;
11123;SDS011;5616;42.692;23.312;2023-03-26T12:21:29;1.10;;;1.00;;
11123;SDS011;5616;42.692;23.312;2023-03-26T12:24:11;1.33;;;1.00;;
11123;SDS011;5616;42.692;23.312;2023-03-26T12:26:55;1.87;;;0.90;;
11123;SDS011;5616;42.692;23.312;2023-03-26T12:29:26;0.83;;;0.83;;
11123;SDS011;5616;42.692;23.312;2023-03-26T12:31:55;1.00;;;0.90;;
11123;SDS011;5616;42.692;23.312;2023-03-26T12:34:27;0.97;;;0.80;;
11123;SDS011;5616;42.692;23.312;2023-03-26T12:36:58;0.73;;;0.73;;
11123;SDS011;5616;42.692;23.312;2023-03-26T12:39:36;0.97;;;0.97;;
11123;SDS011;5616;42.692;23.312;2023-03-26T12:42:04;1.80;;;1.00;;
11123;SDS011;5616;42.692;23.312;2023-03-26T12:44:51;0.93;;;0.60;;
11123;SDS011;5616;42.692;23.312;2023-03-26T12:47:19;0.53;;;0.43;;
11123;SDS011;5616;42.692;23.312;2023-03-26T12:49:49;0.90;;;0.80;;
11123;SDS011;5616;42.692;23.312;2023-03-26T12:52:26;1.80;;;0.60;;
11123;SDS011;5616;42.692;23.312;2023-03-26T12:55:07;0.57;;;0.57;;
11123;SDS011;5616;42.692;23.312;2023-03-26T12:57:47;1.63;;;0.90;;
11123;SDS011;5616;42.692;23.312;2023-03-26T13:00:39;0.90;;;0.90;;
11123;SDS011;5616;42.692;23.312;2023-03-26T13:03:19;1.07;;;0.80;;
11123;SDS011;5616;42.692;23.312;2023-03-26T13:06:09;0.60;;;0.60;;
11123;SDS011;5616;42.692;23.312;2023-03-26T13:09:02;0.80;;;0.80;;
11123;SDS011;5616;42.692;23.312;2023-03-26T13:11:54;0.97;;;0.83;;
11123;SDS011;5616;42.692;23.312;2023-03-26T13:14:45;0.60;;;0.60;;
11123;SDS011;5616;42.692;23.312;2023-03-26T13:17:22;0.70;;;0.50;;
11123;SDS011;5616;42.692;23.312;2023-03-26T13:19:58;0.70;;;0.70;;
11123;SDS011;5616;42.692;23.312;2023-03-26T13:22:35;0.80;;;0.80;;
11123;SDS011;5616;42.692;23.312;2023-03-26T13:25:20;1.67;;;0.77;;
11123;SDS011;5616;42.692;23.312;2023-03-26T13:27:58;0.63;;;0.63;;
11123;SDS011;5616;42.692;23.312;2023-03-26T13:30:36;4.27;;;1.00;;
11123;SDS011;5616;42.692;23.312;2023-03-26T13:33:17;2.43;;;0.80;;
11123;SDS011;5616;42.692;23.312;2023-03-26T13:36:03;1.20;;;0.60;;
11123;SDS011;5616;42.692;23.312;2023-03-26T13:38:38;0.77;;;0.67;;
11123;SDS011;5616;42.692;23.312;2023-03-26T13:41:13;1.03;;;0.80;;
11123;SDS011;5616;42.692;23.312;2023-03-26T13:43:51;1.00;;;0.90;;
11123;SDS011;5616;42.692;23.312;2023-03-26T13:46:29;0.93;;;0.70;;
11123;SDS011;5616;42.692;23.312;2023-03-26T13:49:01;0.57;;;0.57;;
11123;SDS011;5616;42.692;23.312;2023-03-26T13:51:31;2.00;;;1.00;;
11123;SDS011;5616;42.692;23.312;2023-03-26T13:54:07;0.77;;;0.67;;
11123;SDS011;5616;42.692;23.312;2023-03-26T13:56:43;1.10;;;0.70;;
11123;SDS011;5616;42.692;23.312;2023-03-26T13:59:15;0.73;;;0.60;;
11123;SDS011;5616;42.692;23.312;2023-03-26T14:01:48;0.60;;;0.60;;
11123;SDS011;5616;42.692;23.312;2023-03-26T14:04:21;1.43;;;0.40;;
11123;SDS011;5616;42.692;23.312;2023-03-26T14:06:57;1.00;;;0.70;;
11123;SDS011;5616;42.692;23.312;2023-03-26T14:09:33;0.73;;;0.70;;
11123;SDS011;5616;42.692;23.312;2023-03-26T14:14:55;1.70;;;0.50;;
11123;SDS011;5616;42.692;23.312;2023-03-26T14:17:27;1.47;;;0.70;;
11123;SDS011;5616;42.692;23.312;2023-03-26T14:20:20;1.50;;;0.73;;
11123;SDS011;5616;42.692;23.312;2023-03-26T14:23:00;0.70;;;0.70;;
11123;SDS011;5616;42.692;23.312;2023-03-26T14:25:52;0.93;;;0.60;;
11123;SDS011;5616;42.692;23.312;2023-03-26T14:28:41;1.40;;;0.70;;
11123;SDS011;5616;42.692;23.312;2023-03-26T14:31:28;0.63;;;0.60;;
11123;SDS011;5616;42.692;23.312;2023-03-26T14:34:10;1.03;;;0.73;;
11123;SDS011;5616;42.692;23.312;2023-03-26T14:37:03;1.20;;;0.90;;
11123;SDS011;5616;42.692;23.312;2023-03-26T14:39:52;1.10;;;0.90;;
11123;SDS011;5616;42.692;23.312;2023-03-26T14:42:41;2.13;;;0.80;;
11123;SDS011;5616;42.692;23.312;2023-03-26T14:51:04;0.80;;;0.70;;
11123;SDS011;5616;42.692;23.312;2023-03-26T14:53:42;0.80;;;0.50;;
11123;SDS011;5616;42.692;23.312;2023-03-26T15:05:57;1.03;;;1.00;;
11123;SDS011;5616;42.692;23.312;2023-03-26T15:11:47;1.20;;;0.90;;
11123;SDS011;5616;42.692;23.312;2023-03-26T15:17:37;1.83;;;0.83;;
11123;SDS011;5616;42.692;23.312;2023-03-26T15:26:49;2.65;;;1.10;;
11123;SDS011;5616;42.692;23.312;2023-03-26T15:29:48;1.47;;;1.00;;
11123;SDS011;5616;42.692;23.312;2023-03-26T15:35:53;2.83;;;0.90;;
11123;SDS011;5616;42.692;23.312;2023-03-26T15:38:50;0.90;;;0.80;;
11123;SDS011;5616;42.692;23.312;2023-03-26T15:41:45;4.07;;;1.00;;
11123;SDS011;5616;42.692;23.312;2023-03-26T15:44:29;1.57;;;1.03;;
11123;SDS011;5616;42.692;23.312;2023-03-26T15:47:25;1.73;;;1.00;;
11123;SDS011;5616;42.692;23.312;2023-03-26T15:50:19;1.43;;;0.90;;
11123;SDS011;5616;42.692;23.312;2023-03-26T15:53:10;1.37;;;1.00;;
11123;SDS011;5616;42.692;23.312;2023-03-26T15:55:51;0.80;;;0.77;;
11123;SDS011;5616;42.692;23.312;2023-03-26T15:58:32;1.10;;;0.90;;
11123;SDS011;5616;42.692;23.312;2023-03-26T16:01:09;1.40;;;0.77;;
11123;SDS011;5616;42.692;23.312;2023-03-26T16:03:47;2.13;;;1.10;;
11123;SDS011;5616;42.692;23.312;2023-03-26T16:06:29;1.17;;;1.00;;
11123;SDS011;5616;42.692;23.312;2023-03-26T16:09:18;1.03;;;0.93;;
11123;SDS011;5616;42.692;23.312;2023-03-26T16:11:55;1.37;;;0.97;;
11123;SDS011;5616;42.692;23.312;2023-03-26T16:14:37;1.80;;;0.77;;
11123;SDS011;5616;42.692;23.312;2023-03-26T16:17:10;1.80;;;1.00;;
11123;SDS011;5616;42.692;23.312;2023-03-26T16:19:54;1.60;;;1.30;;
11123;SDS011;5616;42.692;23.312;2023-03-26T16:22:36;3.20;;;1.30;;
11123;SDS011;5616;42.692;23.312;2023-03-26T16:25:16;1.30;;;1.17;;
11123;SDS011;5616;42.692;23.312;2023-03-26T16:28:05;1.93;;;1.30;;
11123;SDS011;5616;42.692;23.312;2023-03-26T16:30:43;3.80;;;1.50;;
11123;SDS011;5616;42.692;23.312;2023-03-26T16:33:43;1.60;;;1.20;;
11123;SDS011;5616;42.692;23.312;2023-03-26T16:36:15;3.37;;;1.40;;
11123;SDS011;5616;42.692;23.312;2023-03-26T16:38:59;1.67;;;1.10;;
11123;SDS011;5616;42.692;23.312;2023-03-26T16:41:55;1.80;;;1.20;;
11123;SDS011;5616;42.692;23.312;2023-03-26T16:44:34;2.73;;;1.30;;
11123;SDS011;5616;42.692;23.312;2023-03-26T16:47:13;1.80;;;1.33;;
11123;SDS011;5616;42.692;23.312;2023-03-26T16:49:49;2.30;;;1.50;;
11123;SDS011;5616;42.692;23.312;2023-03-26T16:52:33;1.70;;;1.30;;
11123;SDS011;5616;42.692;23.312;2023-03-26T16:55:15;2.87;;;1.57;;
11123;SDS011;5616;42.692;23.312;2023-03-26T16:57:51;2.10;;;1.20;;
11123;SDS011;5616;42.692;23.312;2023-03-26T17:00:26;1.60;;;1.33;;
11123;SDS011;5616;42.692;23.312;2023-03-26T17:03:16;4.17;;;1.77;;
11123;SDS011;5616;42.692;23.312;2023-03-26T17:05:57;4.97;;;1.23;;
11123;SDS011;5616;42.692;23.312;2023-03-26T17:08:35;4.23;;;1.40;;
11123;SDS011;5616;42.692;23.312;2023-03-26T17:11:15;3.27;;;1.60;;
11123;SDS011;5616;42.692;23.312;2023-03-26T17:13:48;4.43;;;1.57;;
11123;SDS011;5616;42.692;23.312;2023-03-26T17:16:27;3.97;;;1.90;;